createdAt,value
2019-04-21T00:00:06.240Z,176.30
2019-04-21T00:05:25.943Z,154.40
2019-04-21T00:10:23.385Z,162.90
2019-04-21T00:15:14.547Z,143.30
2019-04-21T00:20:12.672Z,144.30
2019-04-21T00:30:21.404Z,136.70
2019-04-21T00:35:07.712Z,125.40
2019-04-21T00:40:22.222Z,135.80
2019-04-21T00:45:16.222Z,111.90
2019-04-21T00:50:25.697Z,108.30
2019-04-21T00:55:29.282Z,105.60
2019-04-21T01:05:18.654Z,112.50
2019-04-21T01:10:15.030Z,114.80
2019-04-21T01:15:32.746Z,113.40
2019-04-21T01:20:12.978Z,105.00
2019-04-21T01:25:08.940Z,98.20
2019-04-21T01:30:24.939Z,99.30
2019-04-21T01:35:21.509Z,97.40
2019-04-21T01:40:27.321Z,99.20
2019-04-21T01:45:21.590Z,93.70
2019-04-21T01:50:14.301Z,100.00
2019-04-21T01:55:25.107Z,104.70
2019-04-21T02:00:10.402Z,88.40
2019-04-21T02:05:25.865Z,87.70
2019-04-21T02:10:27.015Z,88.70
2019-04-21T02:15:25.058Z,81.40
2019-04-21T02:20:16.636Z,92.00
2019-04-21T02:30:36.088Z,92.80
2019-04-21T02:35:34.096Z,94.00
2019-04-21T03:20:35.793Z,0.00
2019-04-21T03:25:33.797Z,182.40
2019-04-21T03:30:59.543Z,120.40
2019-04-21T03:40:27.340Z,114.20
2019-04-21T03:50:33.078Z,104.00
2019-04-21T04:00:50.266Z,106.90
2019-04-21T04:05:49.346Z,109.80
2019-04-21T04:10:32.039Z,108.70
2019-04-21T04:15:39.474Z,104.20
2019-04-21T04:25:25.258Z,104.70
2019-04-21T04:30:33.949Z,93.60
2019-04-21T04:35:26.292Z,93.40
2019-04-21T04:40:30.916Z,90.60
2019-04-21T04:45:38.704Z,94.30
2019-04-21T04:55:33.775Z,88.10
2019-04-21T05:00:34.857Z,86.50
2019-04-21T05:05:36.284Z,81.80
2019-04-21T05:15:16.177Z,83.70
2019-04-21T05:20:26.160Z,91.10
2019-04-21T05:25:20.844Z,138.20
2019-04-21T05:30:30.680Z,146.70
2019-04-21T05:35:24.563Z,142.40
2019-04-21T05:40:17.404Z,110.70
2019-04-21T05:45:24.198Z,118.90
2019-04-21T05:50:19.404Z,98.10
2019-04-21T05:55:24.663Z,102.20
2019-04-21T06:05:28.395Z,101.00
2019-04-21T06:10:27.136Z,111.00
2019-04-21T06:15:19.807Z,110.30
2019-04-21T06:20:21.077Z,82.50
2019-04-21T06:30:28.952Z,92.50
2019-04-21T06:35:37.776Z,74.80
2019-04-21T06:40:23.124Z,58.30
2019-04-21T06:50:22.671Z,48.80
2019-04-21T06:55:31.189Z,50.40
2019-04-21T07:00:22.384Z,51.20
2019-04-21T07:05:31.095Z,44.40
2019-04-21T07:10:20.995Z,31.00
2019-04-21T07:15:28.294Z,29.60
2019-04-21T07:20:21.473Z,27.90
2019-04-21T07:25:22.550Z,27.20
2019-04-21T07:30:28.018Z,30.20
2019-04-21T07:35:20.737Z,23.80
2019-04-21T07:40:13.495Z,25.70
2019-04-21T07:45:18.014Z,45.90
2019-04-21T07:50:24.197Z,20.60
2019-04-21T08:00:31.130Z,21.70
2019-04-21T08:05:23.897Z,18.70
2019-04-21T08:10:23.022Z,17.30
2019-04-21T08:15:31.027Z,15.60
2019-04-21T08:20:18.731Z,16.30
2019-04-21T08:25:19.543Z,13.70
2019-04-21T08:30:26.154Z,22.50
2019-04-21T08:40:26.241Z,146.40
2019-04-21T08:45:25.486Z,18.00
2019-04-21T08:50:20.928Z,16.50
2019-04-21T08:55:25.316Z,17.50
2019-04-21T09:00:19.775Z,72.30
2019-04-21T09:05:17.726Z,15.00
2019-04-21T09:10:26.945Z,15.40
2019-04-21T09:15:20.253Z,15.80
2019-04-21T09:20:26.553Z,16.80
2019-04-21T09:25:26.513Z,12.70
2019-04-21T09:30:04.920Z,12.70
2019-04-21T09:35:05.683Z,21.10
2019-04-21T09:40:02.587Z,12.20
2019-04-21T09:45:04.138Z,12.20
2019-04-21T09:50:02.799Z,10.40
2019-04-21T09:55:06.973Z,6.00
2019-04-21T10:00:08.826Z,6.80
2019-04-21T10:05:01.912Z,13.10
2019-04-21T10:10:01.513Z,8.30
2019-04-21T10:15:01.922Z,10.30
2019-04-21T10:20:01.103Z,16.80
2019-04-21T10:25:02.847Z,8.30
2019-04-21T10:30:03.575Z,8.60
2019-04-21T10:35:01.541Z,9.30
2019-04-21T10:40:01.170Z,10.50
2019-04-21T10:45:03.316Z,31.80
2019-04-21T10:50:02.409Z,27.40
2019-04-21T10:55:19.136Z,10.00
2019-04-21T11:00:01.514Z,12.20
2019-04-21T11:05:02.701Z,13.60
2019-04-21T11:10:02.491Z,11.40
2019-04-21T11:30:02.342Z,39.60
2019-04-21T11:45:01.327Z,8.80
2019-04-21T16:35:05.353Z,7.40
2019-04-21T16:45:01.125Z,8.40
2019-04-21T16:55:03.460Z,12.30
2019-04-21T17:05:02.498Z,11.50
2019-04-21T17:35:01.928Z,9.40
2019-04-21T17:50:03.148Z,9.40
2019-04-21T18:25:07.036Z,15.60
2019-04-21T18:45:40.279Z,16.10
2019-04-21T19:05:09.109Z,9.90
2019-04-21T19:40:13.203Z,13.80
2019-04-21T19:55:02.497Z,12.20
2019-04-21T20:30:21.058Z,11.10
2019-04-21T20:55:15.536Z,10.70
2019-04-21T21:10:16.923Z,10.10
2019-04-21T21:25:29.026Z,15.00
2019-04-21T21:45:08.757Z,13.70
2019-04-21T22:05:07.257Z,10.20
2019-04-21T22:25:10.014Z,12.50
